sensor_id;sensor_type;location;lat;lon;timestamp;pressure;altitude;pressure_sealevel;temperature;humidity
45941;BME280;31858;46.008;8.978;2023-03-05T00:04:21;94136.94;;;6.54;95.50
45941;BME280;31858;46.008;8.978;2023-03-05T00:14:23;94139.66;;;6.58;92.03
45941;BME280;31858;46.008;8.978;2023-03-05T00:24:26;94149.50;;;6.34;80.03
45941;BME280;31858;46.008;8.978;2023-03-05T00:34:28;94146.28;;;6.44;69.17
45941;BME280;31858;46.008;8.978;2023-03-05T00:44:32;94155.22;;;6.36;59.34
45941;BME280;31858;46.008;8.978;2023-03-05T00:54:33;94144.81;;;6.24;59.51
45941;BME280;31858;46.008;8.978;2023-03-05T01:04:36;94133.75;;;6.18;57.34
45941;BME280;31858;46.008;8.978;2023-03-05T01:14:38;94124.94;;;6.11;66.75
45941;BME280;31858;46.008;8.978;2023-03-05T01:24:41;94112.34;;;6.27;57.11
45941;BME280;31858;46.008;8.978;2023-03-05T01:34:43;94102.72;;;6.15;56.18
45941;BME280;31858;46.008;8.978;2023-03-05T01:45:00;94095.06;;;6.10;54.19
45941;BME280;31858;46.008;8.978;2023-03-05T01:55:04;94097.66;;;6.07;55.71
45941;BME280;31858;46.008;8.978;2023-03-05T02:05:12;94083.66;;;6.06;50.27
45941;BME280;31858;46.008;8.978;2023-03-05T02:15:15;94081.19;;;6.17;50.01
45941;BME280;31858;46.008;8.978;2023-03-05T02:25:21;94082.56;;;6.07;49.64
45941;BME280;31858;46.008;8.978;2023-03-05T02:35:24;94074.56;;;6.04;47.90
45941;BME280;31858;46.008;8.978;2023-03-05T02:45:26;94067.56;;;5.92;48.95
45941;BME280;31858;46.008;8.978;2023-03-05T02:55:28;94058.59;;;5.77;49.00
45941;BME280;31858;46.008;8.978;2023-03-05T03:05:31;94062.16;;;5.66;49.48
45941;BME280;31858;46.008;8.978;2023-03-05T03:15:33;94053.88;;;5.67;49.68
45941;BME280;31858;46.008;8.978;2023-03-05T03:25:35;94043.41;;;5.94;48.75
45941;BME280;31858;46.008;8.978;2023-03-05T03:35:37;94038.31;;;5.85;49.88
45941;BME280;31858;46.008;8.978;2023-03-05T03:45:41;94035.16;;;5.76;48.98
45941;BME280;31858;46.008;8.978;2023-03-05T03:55:43;94029.97;;;5.60;50.51
45941;BME280;31858;46.008;8.978;2023-03-05T04:05:47;94021.84;;;5.49;52.05
45941;BME280;31858;46.008;8.978;2023-03-05T04:15:48;94026.31;;;5.45;51.91
45941;BME280;31858;46.008;8.978;2023-03-05T04:25:51;94022.22;;;5.29;52.33
45941;BME280;31858;46.008;8.978;2023-03-05T04:35:53;94018.25;;;5.38;51.28
45941;BME280;31858;46.008;8.978;2023-03-05T04:45:56;94015.63;;;5.38;50.75
45941;BME280;31858;46.008;8.978;2023-03-05T04:55:58;94015.13;;;5.33;50.82
45941;BME280;31858;46.008;8.978;2023-03-05T05:06:02;94011.78;;;5.13;51.79
45941;BME280;31858;46.008;8.978;2023-03-05T05:16:05;94013.25;;;4.91;53.66
45941;BME280;31858;46.008;8.978;2023-03-05T05:26:09;94023.94;;;4.79;53.48
45941;BME280;31858;46.008;8.978;2023-03-05T05:36:15;94001.84;;;4.87;51.54
45941;BME280;31858;46.008;8.978;2023-03-05T05:46:20;94001.22;;;4.74;50.67
45941;BME280;31858;46.008;8.978;2023-03-05T05:56:22;94013.56;;;4.70;48.78
45941;BME280;31858;46.008;8.978;2023-03-05T06:06:25;94006.97;;;4.61;48.46
45941;BME280;31858;46.008;8.978;2023-03-05T06:16:27;94002.91;;;4.47;50.87
45941;BME280;31858;46.008;8.978;2023-03-05T06:26:30;94005.72;;;4.54;51.74
45941;BME280;31858;46.008;8.978;2023-03-05T06:36:31;94000.34;;;4.51;54.61
45941;BME280;31858;46.008;8.978;2023-03-05T06:46:35;94001.53;;;4.53;57.25
45941;BME280;31858;46.008;8.978;2023-03-05T06:56:39;93999.44;;;4.43;57.12
45941;BME280;31858;46.008;8.978;2023-03-05T07:06:43;93992.25;;;4.79;58.41
45941;BME280;31858;46.008;8.978;2023-03-05T07:16:45;93982.31;;;4.72;57.98
45941;BME280;31858;46.008;8.978;2023-03-05T07:26:47;93994.63;;;4.84;57.80
45941;BME280;31858;46.008;8.978;2023-03-05T07:36:49;94007.72;;;4.61;58.49
45941;BME280;31858;46.008;8.978;2023-03-05T07:46:52;93997.47;;;4.75;57.63
45941;BME280;31858;46.008;8.978;2023-03-05T07:56:54;93998.38;;;4.83;56.50
45941;BME280;31858;46.008;8.978;2023-03-05T08:06:57;94002.19;;;4.85;54.27
45941;BME280;31858;46.008;8.978;2023-03-05T08:16:59;93997.53;;;4.79;54.90
45941;BME280;31858;46.008;8.978;2023-03-05T08:27:02;93988.72;;;4.90;57.33
45941;BME280;31858;46.008;8.978;2023-03-05T08:37:03;93980.59;;;4.99;62.01
45941;BME280;31858;46.008;8.978;2023-03-05T08:47:08;93976.50;;;5.24;56.42
45941;BME280;31858;46.008;8.978;2023-03-05T08:57:09;93968.81;;;5.39;62.25
45941;BME280;31858;46.008;8.978;2023-03-05T09:07:12;93969.06;;;5.53;61.31
45941;BME280;31858;46.008;8.978;2023-03-05T09:17:14;93967.44;;;5.68;56.57
45941;BME280;31858;46.008;8.978;2023-03-05T09:27:17;93965.78;;;6.05;56.30
45941;BME280;31858;46.008;8.978;2023-03-05T09:37:19;93961.53;;;6.27;57.25
45941;BME280;31858;46.008;8.978;2023-03-05T09:47:34;93952.69;;;6.42;55.58
45941;BME280;31858;46.008;8.978;2023-03-05T09:57:41;93939.53;;;6.83;56.65
45941;BME280;31858;46.008;8.978;2023-03-05T10:07:53;93930.81;;;7.16;61.33
45941;BME280;31858;46.008;8.978;2023-03-05T10:18:04;93921.81;;;7.68;62.68
45941;BME280;31858;46.008;8.978;2023-03-05T10:28:15;93915.50;;;7.87;54.11
45941;BME280;31858;46.008;8.978;2023-03-05T10:38:33;93913.00;;;8.12;59.61
45941;BME280;31858;46.008;8.978;2023-03-05T10:48:42;93899.06;;;8.26;54.48
45941;BME280;31858;46.008;8.978;2023-03-05T10:58:45;93898.47;;;8.54;57.91
45941;BME280;31858;46.008;8.978;2023-03-05T11:08:48;93889.53;;;9.11;55.00
45941;BME280;31858;46.008;8.978;2023-03-05T11:29:17;93853.09;;;9.76;56.50
45941;BME280;31858;46.008;8.978;2023-03-05T11:39:19;93844.66;;;10.27;61.41
45941;BME280;31858;46.008;8.978;2023-03-05T11:49:24;93819.44;;;10.50;57.61
45941;BME280;31858;46.008;8.978;2023-03-05T11:59:28;93799.47;;;10.86;58.09
45941;BME280;31858;46.008;8.978;2023-03-05T12:09:38;93780.28;;;11.09;58.61
45941;BME280;31858;46.008;8.978;2023-03-05T12:19:48;93768.84;;;11.57;55.68
45941;BME280;31858;46.008;8.978;2023-03-05T12:29:54;93748.78;;;11.83;56.16
45941;BME280;31858;46.008;8.978;2023-03-05T12:39:57;93740.72;;;11.86;56.49
45941;BME280;31858;46.008;8.978;2023-03-05T12:50:01;93719.81;;;12.15;54.16
45941;BME280;31858;46.008;8.978;2023-03-05T13:00:08;93712.09;;;12.21;58.11
45941;BME280;31858;46.008;8.978;2023-03-05T13:10:23;93701.38;;;12.24;53.10
45941;BME280;31858;46.008;8.978;2023-03-05T13:20:29;93696.59;;;12.39;54.72
45941;BME280;31858;46.008;8.978;2023-03-05T13:30:34;93679.38;;;12.44;55.15
45941;BME280;31858;46.008;8.978;2023-03-05T13:40:36;93675.69;;;12.61;54.36
45941;BME280;31858;46.008;8.978;2023-03-05T13:50:40;93669.88;;;12.66;58.03
45941;BME280;31858;46.008;8.978;2023-03-05T14:00:42;93669.72;;;12.77;61.90
45941;BME280;31858;46.008;8.978;2023-03-05T14:10:45;93663.09;;;12.61;62.55
45941;BME280;31858;46.008;8.978;2023-03-05T14:20:59;93654.63;;;12.90;64.12
45941;BME280;31858;46.008;8.978;2023-03-05T14:31:02;93636.75;;;12.60;64.89
45941;BME280;31858;46.008;8.978;2023-03-05T14:41:18;93629.91;;;12.59;67.41
45941;BME280;31858;46.008;8.978;2023-03-05T14:51:22;93627.22;;;12.59;66.64
45941;BME280;31858;46.008;8.978;2023-03-05T15:01:24;93622.75;;;12.52;69.15
45941;BME280;31858;46.008;8.978;2023-03-05T15:11:27;93612.81;;;12.53;69.08
45941;BME280;31858;46.008;8.978;2023-03-05T15:21:29;93605.06;;;12.35;68.62
45941;BME280;31858;46.008;8.978;2023-03-05T15:31:32;93595.41;;;12.18;72.12
45941;BME280;31858;46.008;8.978;2023-03-05T15:41:37;93584.22;;;11.99;72.11
45941;BME280;31858;46.008;8.978;2023-03-05T15:51:40;93586.78;;;11.76;68.45
45941;BME280;31858;46.008;8.978;2023-03-05T16:01:45;93573.09;;;11.74;71.00
45941;BME280;31858;46.008;8.978;2023-03-05T16:11:49;93567.09;;;11.66;69.39
45941;BME280;31858;46.008;8.978;2023-03-05T16:21:51;93567.38;;;11.45;66.79
45941;BME280;31858;46.008;8.978;2023-03-05T16:31:54;93568.06;;;11.19;64.83
45941;BME280;31858;46.008;8.978;2023-03-05T16:41:55;93567.00;;;11.09;69.36
45941;BME280;31858;46.008;8.978;2023-03-05T16:51:58;93571.06;;;10.83;66.54
45941;BME280;31858;46.008;8.978;2023-03-05T17:02:00;93581.25;;;10.51;68.49
45941;BME280;31858;46.008;8.978;2023-03-05T17:12:03;93582.25;;;10.19;68.64
45941;BME280;31858;46.008;8.978;2023-03-05T17:22:05;93594.94;;;9.97;69.43
45941;BME280;31858;46.008;8.978;2023-03-05T17:32:08;93596.91;;;9.82;69.58
45941;BME280;31858;46.008;8.978;2023-03-05T17:42:09;93607.22;;;9.73;70.68
45941;BME280;31858;46.008;8.978;2023-03-05T17:52:12;93612.16;;;9.71;71.83
45941;BME280;31858;46.008;8.978;2023-03-05T18:02:14;93625.13;;;9.62;78.71
45941;BME280;31858;46.008;8.978;2023-03-05T18:12:17;93614.91;;;9.50;83.48
45941;BME280;31858;46.008;8.978;2023-03-05T18:22:18;93632.06;;;9.38;87.15
45941;BME280;31858;46.008;8.978;2023-03-05T18:32:22;93631.31;;;9.31;89.28
45941;BME280;31858;46.008;8.978;2023-03-05T18:42:24;93627.50;;;9.32;92.32
45941;BME280;31858;46.008;8.978;2023-03-05T18:52:27;93632.47;;;9.23;93.14
45941;BME280;31858;46.008;8.978;2023-03-05T19:02:28;93635.88;;;9.30;93.17
45941;BME280;31858;46.008;8.978;2023-03-05T19:12:32;93630.59;;;9.20;92.18
45941;BME280;31858;46.008;8.978;2023-03-05T19:22:34;93628.75;;;8.99;95.17
45941;BME280;31858;46.008;8.978;2023-03-05T19:32:37;93636.00;;;8.66;100.00
45941;BME280;31858;46.008;8.978;2023-03-05T19:42:38;93626.88;;;8.49;100.00
45941;BME280;31858;46.008;8.978;2023-03-05T19:52:41;93631.38;;;8.10;100.00
45941;BME280;31858;46.008;8.978;2023-03-05T20:02:43;93642.34;;;7.98;100.00
45941;BME280;31858;46.008;8.978;2023-03-05T20:12:46;93652.59;;;8.03;100.00
45941;BME280;31858;46.008;8.978;2023-03-05T20:22:49;93652.19;;;8.01;100.00
45941;BME280;31858;46.008;8.978;2023-03-05T20:32:52;93656.34;;;7.95;100.00
45941;BME280;31858;46.008;8.978;2023-03-05T20:42:54;93654.44;;;7.84;100.00
45941;BME280;31858;46.008;8.978;2023-03-05T20:52:57;93655.94;;;7.71;100.00
45941;BME280;31858;46.008;8.978;2023-03-05T21:02:58;93661.16;;;7.57;100.00
45941;BME280;31858;46.008;8.978;2023-03-05T21:13:01;93656.59;;;7.50;100.00
45941;BME280;31858;46.008;8.978;2023-03-05T21:23:03;93659.56;;;7.35;100.00
45941;BME280;31858;46.008;8.978;2023-03-05T21:33:07;93648.53;;;7.26;100.00
45941;BME280;31858;46.008;8.978;2023-03-05T21:43:10;93644.34;;;7.21;100.00
45941;BME280;31858;46.008;8.978;2023-03-05T21:53:15;93639.75;;;7.11;100.00
45941;BME280;31858;46.008;8.978;2023-03-05T22:03:17;93631.78;;;7.07;100.00
45941;BME280;31858;46.008;8.978;2023-03-05T22:13:20;93629.50;;;7.06;100.00
45941;BME280;31858;46.008;8.978;2023-03-05T22:23:23;93621.50;;;6.95;100.00
45941;BME280;31858;46.008;8.978;2023-03-05T22:33:27;93617.22;;;6.76;100.00
45941;BME280;31858;46.008;8.978;2023-03-05T22:43:29;93621.41;;;6.81;100.00
45941;BME280;31858;46.008;8.978;2023-03-05T22:53:32;93612.72;;;6.84;100.00
45941;BME280;31858;46.008;8.978;2023-03-05T23:03:33;93610.41;;;6.79;100.00
45941;BME280;31858;46.008;8.978;2023-03-05T23:13:38;93596.69;;;6.63;100.00
45941;BME280;31858;46.008;8.978;2023-03-05T23:23:40;93600.34;;;6.40;100.00
45941;BME280;31858;46.008;8.978;2023-03-05T23:33:43;93584.41;;;6.33;100.00
45941;BME280;31858;46.008;8.978;2023-03-05T23:43:44;93577.28;;;6.37;100.00
45941;BME280;31858;46.008;8.978;2023-03-05T23:53:47;93581.09;;;6.43;100.00
